Time;durP1;ratioP1;P1;durP2;ratioP2;P2;SDS_P1;SDS_P2;PMS_P1;PMS_P2;Temp;Humidity;BMP_temperature;BMP_pressure;BME280_temperature;BME280_humidity;BME280_pressure;Samples;Min_cycle;Max_cycle;Signal;HPM_P1;HPM_P2
2021/07/09 00:01:41;;;;;;;7.72;3.78;;;15.20;99.90;;;;;;5054809;28;20532;-75
2021/07/09 00:04:08;;;;;;;9.00;4.15;;;15.10;99.90;;;;;;5055952;28;20069;-76
2021/07/09 00:06:34;;;;;;;4.47;3.75;;;15.10;99.90;;;;;;5053929;28;20029;-76
2021/07/09 00:09:02;;;;;;;4.78;4.07;;;15.10;99.90;;;;;;5054719;28;20036;-75
2021/07/09 00:11:28;;;;;;;6.20;4.10;;;15.10;99.90;;;;;;5054043;28;20033;-76
2021/07/09 00:13:53;;;;;;;5.47;3.90;;;15.10;99.90;;;;;;5053149;28;20027;-76
2021/07/09 00:16:19;;;;;;;4.72;3.97;;;15.10;99.90;;;;;;5053982;28;20032;-76
2021/07/09 00:18:46;;;;;;;6.07;4.32;;;15.10;99.90;;;;;;5054209;28;20044;-76
2021/07/09 00:21:12;;;;;;;4.35;3.78;;;15.10;99.90;;;;;;5054382;28;20379;-76
2021/07/09 00:23:39;;;;;;;6.00;3.90;;;15.10;99.90;;;;;;5051215;28;20040;-76
2021/07/09 00:26:05;;;;;;;6.55;4.18;;;15.10;99.90;;;;;;5053565;28;20082;-76
2021/07/09 00:28:31;;;;;;;5.50;4.32;;;15.10;99.90;;;;;;5053944;28;20033;-73
2021/07/09 00:30:57;;;;;;;5.78;4.32;;;15.20;99.90;;;;;;5054352;28;20035;-73
2021/07/09 00:33:23;;;;;;;6.88;3.83;;;15.10;99.90;;;;;;5053669;28;20021;-73
2021/07/09 00:35:49;;;;;;;6.53;3.65;;;15.20;99.90;;;;;;5052801;28;20036;-73
2021/07/09 00:38:15;;;;;;;4.70;3.50;;;15.20;99.90;;;;;;5054110;28;20389;-75
2021/07/09 00:40:41;;;;;;;7.65;4.00;;;15.20;99.90;;;;;;5053489;28;20032;-76
2021/07/09 00:43:06;;;;;;;7.15;3.47;;;15.20;99.90;;;;;;5046488;28;20063;-75
2021/07/09 00:45:32;;;;;;;4.85;3.75;;;15.20;99.90;;;;;;5053412;28;20025;-73
2021/07/09 00:47:58;;;;;;;4.53;3.65;;;15.20;99.90;;;;;;5052591;28;20037;-76
2021/07/09 00:50:24;;;;;;;5.90;3.92;;;15.20;99.90;;;;;;5053118;28;20458;-76
2021/07/09 00:52:50;;;;;;;4.85;3.05;;;15.20;99.90;;;;;;5054082;28;20025;-76
2021/07/09 00:55:16;;;;;;;4.03;3.42;;;15.30;99.90;;;;;;5052143;28;20048;-77
2021/07/09 00:57:45;;;;;;;4.95;3.85;;;15.20;99.90;;;;;;5052731;28;20021;-77
2021/07/09 01:00:13;;;;;;;8.73;3.90;;;15.30;99.90;;;;;;5045392;28;20124;-76
2021/07/09 01:02:39;;;;;;;5.93;3.95;;;15.30;99.90;;;;;;5052950;28;20750;-75
2021/07/09 01:05:08;;;;;;;5.80;4.50;;;15.30;99.90;;;;;;5052484;28;20131;-75
2021/07/09 01:07:37;;;;;;;7.28;4.45;;;15.20;99.90;;;;;;5051968;28;20048;-74
2021/07/09 01:10:08;;;;;;;6.28;4.20;;;15.20;99.90;;;;;;5053331;28;20116;-74
2021/07/09 01:12:34;;;;;;;4.88;4.30;;;15.10;99.90;;;;;;5052619;28;20060;-76
2021/07/09 01:14:59;;;;;;;8.15;4.85;;;15.10;99.90;;;;;;5053702;28;20090;-74
2021/07/09 01:17:25;;;;;;;12.13;5.10;;;15.10;99.90;;;;;;5053099;28;20075;-75
2021/07/09 01:19:51;;;;;;;6.05;4.95;;;15.10;99.90;;;;;;5051983;28;20029;-75
2021/07/09 01:22:17;;;;;;;7.60;5.38;;;15.10;99.90;;;;;;5046920;28;20029;-76
2021/07/09 01:24:43;;;;;;;10.05;5.43;;;15.10;99.90;;;;;;5053309;28;20108;-74
2021/07/09 01:27:08;;;;;;;7.30;5.35;;;15.00;99.90;;;;;;5052069;28;20397;-75
2021/07/09 01:29:34;;;;;;;8.60;4.93;;;15.00;99.90;;;;;;5051784;28;20028;-75
2021/07/09 01:32:00;;;;;;;9.25;4.75;;;15.00;99.90;;;;;;5053221;28;20033;-74
2021/07/09 01:34:26;;;;;;;9.52;5.05;;;15.00;99.90;;;;;;5051856;28;20021;-74
2021/07/09 01:36:52;;;;;;;6.05;4.47;;;15.00;99.90;;;;;;5052895;28;20036;-72
2021/07/09 01:39:18;;;;;;;5.70;4.60;;;15.00;99.90;;;;;;5052651;28;20808;-77
2021/07/09 01:41:44;;;;;;;4.10;3.67;;;15.00;99.90;;;;;;5052869;28;20020;-74
2021/07/09 01:44:10;;;;;;;5.88;4.30;;;15.00;99.90;;;;;;5053050;28;20103;-75
2021/07/09 01:46:37;;;;;;;5.25;3.97;;;15.00;99.90;;;;;;5051755;28;20087;-76
2021/07/09 01:49:03;;;;;;;6.13;4.47;;;15.00;99.90;;;;;;5052508;28;20033;-75
2021/07/09 01:51:29;;;;;;;6.55;4.50;;;14.90;99.90;;;;;;5051931;28;20041;-77
2021/07/09 01:53:55;;;;;;;4.85;4.38;;;14.90;99.90;;;;;;5047266;28;20156;-75
2021/07/09 01:56:20;;;;;;;8.40;4.60;;;14.80;99.90;;;;;;5050659;28;20513;-80
2021/07/09 01:58:46;;;;;;;6.38;4.32;;;14.80;99.90;;;;;;5052315;28;20028;-74
2021/07/09 02:01:11;;;;;;;6.53;4.47;;;14.90;99.90;;;;;;5052037;28;20033;-76
2021/07/09 02:03:37;;;;;;;7.53;4.15;;;14.90;99.90;;;;;;5051466;28;20025;-75
2021/07/09 02:06:03;;;;;;;9.40;4.53;;;14.90;99.90;;;;;;5052517;28;20029;-75
2021/07/09 02:08:28;;;;;;;6.10;4.53;;;14.90;99.90;;;;;;5050255;28;20037;-75
2021/07/09 02:10:54;;;;;;;4.28;3.90;;;14.90;99.90;;;;;;5051173;28;20060;-74
2021/07/09 02:13:20;;;;;;;6.38;4.32;;;14.90;99.90;;;;;;5051901;28;20362;-76
2021/07/09 02:15:47;;;;;;;6.53;4.07;;;14.90;99.90;;;;;;5051332;28;20385;-75
2021/07/09 02:18:14;;;;;;;4.38;3.97;;;14.90;99.90;;;;;;5050950;28;20478;-75
2021/07/09 02:20:41;;;;;;;5.70;3.80;;;14.90;99.90;;;;;;5051427;28;20021;-74
2021/07/09 02:23:09;;;;;;;8.75;4.28;;;14.90;99.90;;;;;;5048503;28;20025;-75
2021/07/09 02:25:36;;;;;;;8.48;4.45;;;14.90;99.90;;;;;;5049865;28;20024;-75
2021/07/09 02:28:04;;;;;;;6.70;4.32;;;14.80;99.90;;;;;;5050222;28;20079;-75
2021/07/09 02:30:30;;;;;;;7.32;3.95;;;14.80;99.90;;;;;;5051707;28;20036;-75
2021/07/09 02:32:56;;;;;;;8.80;4.10;;;14.80;99.90;;;;;;5051631;28;20079;-74
2021/07/09 02:35:33;;;;;;;5.53;3.60;;;14.80;99.90;;;;;;5050592;28;20040;-76
2021/07/09 02:37:59;;;;;;;4.13;3.72;;;14.80;99.90;;;;;;5052124;28;20117;-75
2021/07/09 02:40:28;;;;;;;6.43;4.40;;;14.80;99.90;;;;;;5049786;28;20103;-75
2021/07/09 02:42:57;;;;;;;5.13;3.97;;;14.80;99.90;;;;;;5050343;28;20029;-75
2021/07/09 02:45:23;;;;;;;4.47;3.90;;;14.80;99.90;;;;;;5050696;28;20104;-76
2021/07/09 02:47:50;;;;;;;4.88;4.00;;;14.70;99.90;;;;;;5051485;28;20029;-75
2021/07/09 02:50:18;;;;;;;5.85;4.80;;;14.70;99.90;;;;;;5051560;28;20029;-75
2021/07/09 02:52:44;;;;;;;7.03;4.63;;;14.70;99.90;;;;;;5050671;28;20047;-75
2021/07/09 02:55:11;;;;;;;6.35;4.75;;;14.70;99.90;;;;;;5049805;28;20401;-75
2021/07/09 02:57:38;;;;;;;6.32;4.50;;;14.70;99.90;;;;;;5050572;28;20043;-75
2021/07/09 03:00:09;;;;;;;4.88;4.20;;;14.60;99.90;;;;;;5051440;28;20029;-76
2021/07/09 03:02:35;;;;;;;6.13;4.57;;;14.60;99.90;;;;;;5049234;28;20081;-76
2021/07/09 03:05:01;;;;;;;5.97;3.97;;;14.60;99.90;;;;;;5049459;28;20029;-76
2021/07/09 03:07:27;;;;;;;5.45;4.65;;;14.70;99.90;;;;;;5050406;28;20037;-76
2021/07/09 03:09:52;;;;;;;6.65;4.80;;;14.70;99.90;;;;;;5051157;28;20313;-75
2021/07/09 03:12:18;;;;;;;4.80;4.32;;;14.70;99.90;;;;;;5051696;28;20497;-75
2021/07/09 03:14:44;;;;;;;6.63;4.10;;;14.70;99.90;;;;;;5050550;28;20485;-76
2021/07/09 03:17:09;;;;;;;7.65;4.55;;;14.70;99.90;;;;;;5049857;28;20116;-75
2021/07/09 03:19:35;;;;;;;5.15;4.20;;;14.70;99.90;;;;;;5048989;28;20107;-76
2021/07/09 03:22:00;;;;;;;4.40;4.00;;;14.70;99.90;;;;;;5050686;28;20078;-75
2021/07/09 03:24:26;;;;;;;5.95;4.40;;;14.70;99.90;;;;;;5050117;28;20032;-76
2021/07/09 03:26:52;;;;;;;6.97;4.63;;;14.70;99.90;;;;;;5049551;28;20036;-76
2021/07/09 03:29:18;;;;;;;5.25;4.45;;;14.70;99.90;;;;;;5051063;28;20096;-76
2021/07/09 03:31:43;;;;;;;6.93;4.55;;;14.60;99.90;;;;;;5049538;28;20116;-77
2021/07/09 03:34:10;;;;;;;7.88;4.10;;;14.70;99.90;;;;;;5049297;28;20032;-76
2021/07/09 03:36:38;;;;;;;5.40;4.80;;;14.70;99.90;;;;;;5049376;28;20039;-76
2021/07/09 03:39:05;;;;;;;6.80;4.53;;;14.70;99.90;;;;;;5051024;28;20029;-74
2021/07/09 03:41:30;;;;;;;8.75;5.45;;;14.70;99.90;;;;;;5049219;28;20490;-74
2021/07/09 03:43:56;;;;;;;5.43;4.32;;;14.70;99.90;;;;;;5050560;28;20035;-73
2021/07/09 03:46:22;;;;;;;11.57;5.15;;;14.80;99.90;;;;;;5048779;28;20056;-76
2021/07/09 03:48:48;;;;;;;8.85;5.22;;;14.70;99.90;;;;;;5048243;28;20060;-75
2021/07/09 03:51:13;;;;;;;7.05;4.65;;;14.60;99.90;;;;;;5050599;28;20486;-77
2021/07/09 03:53:39;;;;;;;6.63;4.72;;;14.70;99.90;;;;;;5049507;28;20052;-77
2021/07/09 03:56:05;;;;;;;7.30;4.80;;;14.70;99.90;;;;;;5049749;28;20033;-73
2021/07/09 03:58:33;;;;;;;5.57;4.78;;;14.60;99.90;;;;;;5048178;28;20339;-73
2021/07/09 04:01:00;;;;;;;8.40;4.95;;;14.60;99.90;;;;;;5050646;28;20029;-73
2021/07/09 04:03:25;;;;;;;8.27;5.45;;;14.70;99.90;;;;;;5048627;28;20028;-74
2021/07/09 04:05:51;;;;;;;8.10;5.20;;;14.60;99.90;;;;;;5048711;28;20028;-73
2021/07/09 04:08:16;;;;;;;4.80;4.40;;;14.60;99.90;;;;;;5050145;28;20572;-73
2021/07/09 04:10:42;;;;;;;6.07;4.65;;;14.70;99.90;;;;;;5048655;28;20060;-73
2021/07/09 04:13:08;;;;;;;9.60;4.63;;;14.70;99.90;;;;;;5050577;28;20087;-73
2021/07/09 04:15:33;;;;;;;7.88;4.38;;;14.80;99.90;;;;;;5049612;28;20110;-73
2021/07/09 04:17:59;;;;;;;6.68;4.93;;;14.70;99.90;;;;;;5050260;28;20099;-73
2021/07/09 04:20:25;;;;;;;4.63;3.90;;;14.80;99.90;;;;;;5048465;28;20094;-75
2021/07/09 04:22:54;;;;;;;6.10;4.22;;;14.80;99.90;;;;;;5050255;28;20021;-72
2021/07/09 04:25:20;;;;;;;7.40;4.90;;;14.70;99.90;;;;;;5050748;28;20044;-72
2021/07/09 04:27:45;;;;;;;6.45;4.88;;;14.60;99.90;;;;;;5049380;28;20459;-72
2021/07/09 04:30:13;;;;;;;8.45;4.60;;;14.60;99.90;;;;;;5050393;28;20525;-73
2021/07/09 04:32:39;;;;;;;6.20;5.05;;;14.60;99.90;;;;;;5048631;28;20405;-72
2021/07/09 04:35:06;;;;;;;10.60;4.82;;;14.60;99.90;;;;;;5050501;28;20034;-72
2021/07/09 04:37:31;;;;;;;12.45;5.68;;;14.60;99.90;;;;;;5048879;28;20076;-73
2021/07/09 04:39:57;;;;;;;6.07;4.85;;;14.60;99.90;;;;;;5054389;28;20060;-73
2021/07/09 04:42:23;;;;;;;5.88;5.10;;;14.60;99.90;;;;;;5053613;28;20033;-75
2021/07/09 04:44:49;;;;;;;5.38;4.70;;;14.60;99.90;;;;;;5052610;28;20060;-74
2021/07/09 04:47:14;;;;;;;7.57;4.68;;;14.60;99.90;;;;;;5054191;28;20035;-73
2021/07/09 04:49:40;;;;;;;8.38;4.65;;;14.60;99.90;;;;;;5053137;28;20028;-73
2021/07/09 04:52:06;;;;;;;8.30;4.70;;;14.60;99.90;;;;;;5053123;28;20037;-73
2021/07/09 04:54:32;;;;;;;6.32;4.50;;;14.60;99.90;;;;;;5052573;28;20045;-73
2021/07/09 04:56:57;;;;;;;7.72;4.82;;;14.50;99.90;;;;;;5052503;28;20090;-73
2021/07/09 04:59:23;;;;;;;6.60;4.97;;;14.50;99.90;;;;;;5052233;28;20068;-76
2021/07/09 05:01:49;;;;;;;6.57;4.68;;;14.50;99.90;;;;;;5052429;28;20056;-73
2021/07/09 05:04:14;;;;;;;6.25;5.55;;;14.50;99.90;;;;;;5053259;28;20028;-73
2021/07/09 05:06:40;;;;;;;5.38;4.57;;;14.50;99.90;;;;;;5050677;28;20466;-74
2021/07/09 05:09:07;;;;;;;5.88;5.25;;;14.50;99.90;;;;;;5053570;28;20021;-73
2021/07/09 05:11:37;;;;;;;4.63;4.22;;;14.50;99.90;;;;;;5051867;28;20104;-73
2021/07/09 05:14:03;;;;;;;6.60;4.35;;;14.70;99.90;;;;;;5050769;28;20025;-74
2021/07/09 05:16:29;;;;;;;4.50;4.03;;;14.70;99.90;;;;;;5052509;28;20024;-72
2021/07/09 05:18:56;;;;;;;5.25;4.50;;;14.60;99.90;;;;;;5053162;28;20135;-73
2021/07/09 05:21:22;;;;;;;6.05;4.13;;;14.60;99.90;;;;;;5053158;28;20028;-74
2021/07/09 05:23:48;;;;;;;4.45;4.05;;;14.60;99.90;;;;;;5051265;28;20928;-73
2021/07/09 05:26:15;;;;;;;4.68;4.28;;;14.60;99.90;;;;;;5053515;28;20521;-73
2021/07/09 05:28:41;;;;;;;6.88;4.82;;;14.60;99.90;;;;;;5050932;28;20391;-74
2021/07/09 05:31:07;;;;;;;4.28;3.88;;;14.60;99.90;;;;;;5053390;28;20103;-75
2021/07/09 05:33:33;;;;;;;6.10;4.28;;;14.60;99.90;;;;;;5052142;28;20017;-77
2021/07/09 05:35:59;;;;;;;5.38;4.40;;;14.50;99.90;;;;;;5052581;28;20043;-77
2021/07/09 05:38:24;;;;;;;5.60;4.65;;;14.60;99.90;;;;;;5052909;28;20459;-77
2021/07/09 05:40:50;;;;;;;8.80;4.63;;;14.50;99.90;;;;;;5051546;28;20075;-80
2021/07/09 05:43:16;;;;;;;4.82;4.30;;;14.50;99.90;;;;;;5051895;28;20029;-76
2021/07/09 05:45:41;;;;;;;8.18;4.82;;;14.50;99.90;;;;;;5050567;28;20357;-75
2021/07/09 05:48:07;;;;;;;5.97;4.47;;;14.50;99.90;;;;;;5049474;28;20112;-75
2021/07/09 05:50:33;;;;;;;6.32;4.25;;;14.60;99.90;;;;;;5051070;28;20051;-77
2021/07/09 05:52:58;;;;;;;5.90;4.40;;;14.60;99.90;;;;;;5048801;28;20036;-77
2021/07/09 05:55:24;;;;;;;5.45;4.05;;;14.60;99.90;;;;;;5052516;28;20103;-77
2021/07/09 05:57:50;;;;;;;6.03;4.25;;;14.60;99.90;;;;;;5051986;28;20032;-77
2021/07/09 06:00:16;;;;;;;7.18;4.40;;;14.70;99.90;;;;;;5052439;28;20036;-77
2021/07/09 06:02:41;;;;;;;4.28;3.92;;;14.80;99.90;;;;;;5052087;28;20111;-77
2021/07/09 06:05:09;;;;;;;6.55;4.20;;;14.80;99.90;;;;;;5053043;28;20375;-77
2021/07/09 06:07:34;;;;;;;5.65;3.83;;;14.80;99.90;;;;;;5051143;28;20068;-77
2021/07/09 06:10:00;;;;;;;13.57;4.90;;;14.80;99.90;;;;;;5052097;28;20068;-76
2021/07/09 06:12:26;;;;;;;5.13;3.83;;;14.80;99.90;;;;;;5052195;28;20044;-76
2021/07/09 06:14:53;;;;;;;8.23;4.75;;;14.90;99.90;;;;;;5051493;28;20441;-77
2021/07/09 06:17:19;;;;;;;8.52;4.65;;;14.90;99.90;;;;;;5052472;28;20037;-77
2021/07/09 06:19:45;;;;;;;6.38;4.57;;;14.90;99.90;;;;;;5050727;28;20044;-74
2021/07/09 06:22:11;;;;;;;7.07;4.60;;;15.00;99.90;;;;;;5051787;28;20024;-75
2021/07/09 06:24:36;;;;;;;7.90;5.18;;;15.00;99.90;;;;;;5049398;28;20037;-75
2021/07/09 06:27:03;;;;;;;8.57;5.18;;;15.10;99.90;;;;;;5052260;28;20036;-74
2021/07/09 06:29:28;;;;;;;8.02;4.82;;;15.10;99.90;;;;;;5051285;28;20119;-76
2021/07/09 06:31:54;;;;;;;7.97;4.97;;;15.10;99.90;;;;;;5051321;28;20507;-77
2021/07/09 06:34:20;;;;;;;5.95;5.15;;;15.00;99.90;;;;;;5050459;28;20139;-77
2021/07/09 06:36:46;;;;;;;7.53;5.40;;;15.10;99.90;;;;;;5049999;28;20111;-77
2021/07/09 06:39:12;;;;;;;5.63;5.07;;;15.10;99.90;;;;;;5050725;28;20032;-77
2021/07/09 06:41:37;;;;;;;5.00;4.50;;;15.10;99.90;;;;;;5050329;28;20029;-76
2021/07/09 06:44:03;;;;;;;6.53;4.93;;;15.10;99.90;;;;;;5050826;28;20036;-76
2021/07/09 06:46:29;;;;;;;13.73;6.07;;;15.00;99.90;;;;;;5051343;28;20029;-77
2021/07/09 06:48:55;;;;;;;8.55;5.45;;;15.00;99.90;;;;;;5050983;28;20033;-75
2021/07/09 06:51:21;;;;;;;6.70;5.28;;;15.00;99.90;;;;;;5051797;28;20028;-74
2021/07/09 06:53:49;;;;;;;8.63;5.70;;;15.10;99.90;;;;;;5050375;28;20985;-76
2021/07/09 06:56:16;;;;;;;6.20;5.47;;;15.10;99.90;;;;;;5051114;28;20110;-75
2021/07/09 06:58:41;;;;;;;8.00;5.47;;;15.10;99.90;;;;;;5050563;28;20032;-76
2021/07/09 07:01:08;;;;;;;6.53;5.93;;;15.00;99.90;;;;;;5051772;28;20021;-75
2021/07/09 07:03:34;;;;;;;12.25;6.40;;;15.10;99.90;;;;;;5050001;28;20021;-76
2021/07/09 07:06:00;;;;;;;6.68;5.82;;;15.10;99.90;;;;;;5051663;28;20079;-76
2021/07/09 07:08:26;;;;;;;9.65;6.45;;;15.10;99.90;;;;;;5051396;28;20052;-81
2021/07/09 07:10:54;;;;;;;10.07;6.15;;;15.20;99.90;;;;;;5050413;28;20061;-78
2021/07/09 07:13:23;;;;;;;5.82;4.80;;;15.20;99.90;;;;;;5050430;28;20037;-77
2021/07/09 07:15:49;;;;;;;6.00;5.47;;;15.30;99.90;;;;;;5049098;28;20029;-77
2021/07/09 07:18:15;;;;;;;6.68;5.55;;;15.40;99.90;;;;;;5051258;28;20429;-75
2021/07/09 07:20:44;;;;;;;5.10;4.60;;;15.50;99.90;;;;;;5049785;28;20021;-75
2021/07/09 07:23:11;;;;;;;7.25;5.25;;;15.60;99.90;;;;;;5051005;28;20017;-75
2021/07/09 07:25:38;;;;;;;7.45;5.35;;;15.70;99.90;;;;;;5050315;28;20052;-75
2021/07/09 07:28:05;;;;;;;6.15;5.07;;;15.80;99.90;;;;;;5048675;28;20036;-75
2021/07/09 07:30:32;;;;;;;5.75;4.63;;;15.90;99.90;;;;;;5050961;28;20032;-77
2021/07/09 07:32:58;;;;;;;8.10;4.90;;;16.00;99.90;;;;;;5051372;28;20466;-75
2021/07/09 07:35:24;;;;;;;5.50;4.55;;;16.00;99.90;;;;;;5051149;28;20078;-75
2021/07/09 07:37:50;;;;;;;5.15;4.65;;;16.20;99.90;;;;;;5049807;28;20115;-75
2021/07/09 07:40:17;;;;;;;7.57;4.72;;;16.30;99.90;;;;;;5050782;28;20033;-74
2021/07/09 07:42:43;;;;;;;5.30;3.67;;;16.30;99.90;;;;;;5048604;28;20421;-75
2021/07/09 07:45:09;;;;;;;7.30;4.50;;;16.40;99.90;;;;;;5050634;28;20028;-78
2021/07/09 07:47:35;;;;;;;4.28;3.83;;;16.50;99.90;;;;;;5048950;28;20037;-72
2021/07/09 07:50:00;;;;;;;6.03;4.25;;;16.60;99.90;;;;;;5050059;28;20078;-74
2021/07/09 07:52:26;;;;;;;7.35;4.10;;;16.70;99.90;;;;;;5050581;28;20104;-73
2021/07/09 07:54:52;;;;;;;5.95;4.00;;;16.70;99.90;;;;;;5050128;28;20103;-73
2021/07/09 07:57:20;;;;;;;4.32;3.80;;;16.70;99.90;;;;;;5050815;28;20032;-73
2021/07/09 07:59:46;;;;;;;5.95;4.40;;;16.80;99.90;;;;;;5050035;28;20029;-75
2021/07/09 08:02:12;;;;;;;9.68;4.60;;;16.90;99.90;;;;;;5049228;28;20512;-74
2021/07/09 08:04:38;;;;;;;5.90;3.60;;;16.90;99.90;;;;;;5050137;28;20029;-74
2021/07/09 08:07:04;;;;;;;4.97;4.20;;;17.10;99.90;;;;;;5051235;28;20047;-73
2021/07/09 08:09:30;;;;;;;6.63;4.13;;;17.20;99.90;;;;;;5050652;28;20112;-75
2021/07/09 08:11:56;;;;;;;4.82;3.80;;;17.30;99.90;;;;;;5050411;28;20059;-74
2021/07/09 08:14:22;;;;;;;5.82;4.10;;;17.50;99.90;;;;;;5053686;28;20029;-74
2021/07/09 08:16:51;;;;;;;6.03;3.85;;;17.70;99.90;;;;;;5054301;28;20401;-74
2021/07/09 08:19:17;;;;;;;6.95;4.05;;;17.90;99.90;;;;;;5054727;28;20116;-73
2021/07/09 08:21:46;;;;;;;5.00;3.67;;;18.10;99.90;;;;;;5054170;28;20033;-74
2021/07/09 08:24:16;;;;;;;3.90;3.60;;;18.20;99.90;;;;;;5054372;28;20055;-74
2021/07/09 08:26:42;;;;;;;4.97;3.67;;;18.40;99.90;;;;;;5052449;28;20117;-74
2021/07/09 08:29:08;;;;;;;5.68;3.80;;;18.50;99.90;;;;;;5054568;28;20036;-74
2021/07/09 08:31:33;;;;;;;3.38;3.05;;;18.60;99.90;;;;;;5053625;28;20025;-77
2021/07/09 08:33:59;;;;;;;4.07;2.88;;;18.70;99.90;;;;;;5054307;28;20060;-74
2021/07/09 08:36:25;;;;;;;6.65;3.42;;;18.80;99.90;;;;;;5054672;28;20033;-73
2021/07/09 08:38:51;;;;;;;4.32;3.10;;;18.90;99.90;;;;;;5054101;28;20525;-74
2021/07/09 08:41:17;;;;;;;6.78;3.50;;;18.90;99.90;;;;;;5054181;28;20471;-74
2021/07/09 08:43:43;;;;;;;4.40;2.95;;;19.10;99.90;;;;;;5051904;28;20055;-74
2021/07/09 08:46:09;;;;;;;5.32;3.10;;;19.20;99.90;;;;;;5054212;28;20033;-74
2021/07/09 08:48:36;;;;;;;4.03;3.08;;;19.40;99.90;;;;;;5053436;28;20029;-78
2021/07/09 08:51:03;;;;;;;6.68;3.30;;;19.50;99.90;;;;;;5053980;28;20037;-74
2021/07/09 08:53:29;;;;;;;6.10;3.50;;;19.50;99.90;;;;;;5053627;28;20062;-74
2021/07/09 08:55:55;;;;;;;3.40;3.10;;;19.60;99.90;;;;;;5053007;28;20041;-74
2021/07/09 08:58:21;;;;;;;6.03;3.88;;;19.60;99.90;;;;;;5054160;28;20106;-74
2021/07/09 09:00:47;;;;;;;5.63;3.35;;;19.70;99.90;;;;;;5053409;28;20056;-74
2021/07/09 09:03:15;;;;;;;4.65;3.10;;;19.80;99.90;;;;;;5054200;28;20104;-74
2021/07/09 09:05:42;;;;;;;5.13;3.55;;;19.90;99.90;;;;;;5051743;28;20029;-74
2021/07/09 09:08:09;;;;;;;4.97;3.92;;;20.10;99.90;;;;;;5053743;28;20106;-74
2021/07/09 09:10:46;;;;;;;6.50;3.33;;;20.20;99.90;;;;;;5052685;28;20497;-77
2021/07/09 09:13:18;;;;;;;5.10;3.30;;;20.30;99.90;;;;;;5053871;28;20165;-74
2021/07/09 09:15:56;;;;;;;4.55;3.47;;;20.60;99.80;;;;;;5044993;28;20025;-73
2021/07/09 09:18:29;;;;;;;7.00;3.90;;;20.80;98.30;;;;;;5052623;28;20036;-76
2021/07/09 09:20:59;;;;;;;4.47;3.10;;;20.90;96.40;;;;;;5045735;28;20036;-82
2021/07/09 09:23:26;;;;;;;4.68;3.28;;;20.90;95.90;;;;;;5053914;28;20033;-85
2021/07/09 09:25:52;;;;;;;6.45;3.72;;;20.90;95.90;;;;;;5051966;28;20029;-82
2021/07/09 09:28:18;;;;;;;6.85;3.50;;;20.90;94.70;;;;;;5053629;28;20037;-81
2021/07/09 09:30:45;;;;;;;6.28;3.40;;;20.90;94.90;;;;;;5053895;28;20025;-83
2021/07/09 09:33:13;;;;;;;4.32;3.47;;;20.90;94.10;;;;;;5054974;28;20025;-79
2021/07/09 09:35:42;;;;;;;9.30;3.10;;;20.90;95.70;;;;;;5041856;28;20032;-80
2021/07/09 09:38:16;;;;;;;3.85;3.08;;;20.90;93.30;;;;;;5052986;28;20029;-79
2021/07/09 09:40:44;;;;;;;3.50;3.20;;;20.90;94.00;;;;;;5053059;28;20025;-81
2021/07/09 09:43:10;;;;;;;5.13;3.20;;;21.00;93.30;;;;;;5053332;28;20120;-79
2021/07/09 09:45:36;;;;;;;5.68;3.47;;;21.20;93.10;;;;;;5053675;28;20115;-84
2021/07/09 09:48:13;;;;;;;5.50;3.20;;;21.30;94.60;;;;;;5056790;28;20025;-83
2021/07/09 09:50:51;;;;;;;9.00;4.00;;;21.30;94.10;;;;;;5052456;28;20032;-87
2021/07/09 09:53:32;;;;;;;8.98;3.78;;;21.30;92.30;;;;;;5053982;28;20025;-85
2021/07/09 09:56:08;;;;;;;8.18;4.25;;;21.20;93.60;;;;;;5052115;28;20060;-81
2021/07/09 09:58:34;;;;;;;5.53;3.80;;;21.20;92.30;;;;;;5052531;28;20025;-82
2021/07/09 10:01:00;;;;;;;6.80;3.28;;;21.20;92.60;;;;;;5052341;28;20086;-79
2021/07/09 10:03:26;;;;;;;4.28;3.25;;;21.20;92.00;;;;;;5053148;28;20584;-79
2021/07/09 10:05:52;;;;;;;5.63;3.20;;;21.30;91.50;;;;;;5051227;28;20044;-84
2021/07/09 10:08:21;;;;;;;7.25;3.45;;;21.30;91.50;;;;;;5059642;28;20025;-88
2021/07/09 10:10:48;;;;;;;4.68;3.42;;;21.40;90.30;;;;;;5049767;28;20025;-78
2021/07/09 10:13:16;;;;;;;6.53;3.35;;;21.40;91.10;;;;;;5052066;28;20060;-80
2021/07/09 10:15:43;;;;;;;3.88;3.47;;;21.40;90.70;;;;;;5051418;28;20040;-79
2021/07/09 10:18:15;;;;;;;3.95;3.05;;;21.40;91.20;;;;;;5052259;28;20032;-76
2021/07/09 10:20:42;;;;;;;3.75;3.45;;;21.50;90.90;;;;;;5051217;28;20032;-75
2021/07/09 10:23:09;;;;;;;6.85;3.85;;;21.60;88.50;;;;;;5052033;28;20033;-76
2021/07/09 10:25:35;;;;;;;5.65;3.45;;;21.60;87.40;;;;;;5052315;28;20025;-78
2021/07/09 10:28:05;;;;;;;4.03;3.58;;;21.60;90.00;;;;;;5051658;28;20048;-76
2021/07/09 10:30:38;;;;;;;10.35;4.35;;;21.70;87.10;;;;;;5052327;28;20057;-77
2021/07/09 10:33:37;;;;;;;6.05;3.70;;;21.80;86.80;;;;;;5052117;28;20033;-75
2021/07/09 10:36:07;;;;;;;8.60;4.18;;;22.00;87.80;;;;;;5040953;28;20045;-72
2021/07/09 10:38:41;;;;;;;10.23;4.43;;;22.20;87.00;;;;;;5051668;28;20114;-72
2021/07/09 10:41:19;;;;;;;6.38;4.13;;;22.40;84.70;;;;;;5050900;28;20048;-75
2021/07/09 10:44:14;;;;;;;8.98;4.72;;;22.50;85.00;;;;;;5050924;28;20370;-75
2021/07/09 10:46:40;;;;;;;7.85;4.80;;;22.40;84.00;;;;;;5046290;28;20117;-75
2021/07/09 10:49:05;;;;;;;10.95;5.63;;;22.40;84.50;;;;;;5051435;28;20071;-76
2021/07/09 10:51:48;;;;;;;7.35;5.53;;;22.40;85.60;;;;;;5049886;28;20061;-75
2021/07/09 10:54:26;;;;;;;8.48;5.68;;;22.60;84.20;;;;;;5049312;28;20044;-76
2021/07/09 10:57:17;;;;;;;8.35;5.90;;;22.90;82.40;;;;;;5045395;28;20051;-76
2021/07/09 11:00:21;;;;;;;8.80;6.20;;;23.00;79.90;;;;;;5050898;28;20029;-74
2021/07/09 11:03:04;;;;;;;8.48;6.32;;;23.10;80.00;;;;;;5051027;28;20036;-75
2021/07/09 11:05:42;;;;;;;6.45;5.75;;;22.80;77.90;;;;;;5058339;28;20036;-74
2021/07/09 11:08:29;;;;;;;7.68;6.10;;;22.60;80.10;;;;;;5050373;28;20076;-81
2021/07/09 11:10:59;;;;;;;7.43;6.00;;;22.50;81.30;;;;;;5044528;28;20607;-75
2021/07/09 11:13:44;;;;;;;12.40;6.18;;;22.40;79.70;;;;;;5051204;28;20461;-74
2021/07/09 11:16:25;;;;;;;8.10;6.32;;;22.40;81.10;;;;;;5045607;28;20028;-68
2021/07/09 11:18:51;;;;;;;10.98;6.47;;;22.30;80.50;;;;;;5050384;28;20131;-67
2021/07/09 11:21:37;;;;;;;12.02;6.63;;;22.30;81.40;;;;;;5051077;28;20126;-68
2021/07/09 11:24:14;;;;;;;11.48;6.38;;;22.10;81.70;;;;;;5045094;28;20163;-66
2021/07/09 11:26:46;;;;;;;6.15;4.88;;;22.10;82.60;;;;;;5046637;28;20032;-66
2021/07/09 11:29:21;;;;;;;9.95;5.95;;;22.00;84.20;;;;;;5050837;28;20119;-66
2021/07/09 11:31:48;;;;;;;9.95;6.00;;;22.20;84.90;;;;;;5050648;28;20029;-68
2021/07/09 11:34:16;;;;;;;7.35;5.93;;;22.50;81.30;;;;;;5051120;28;20108;-66
2021/07/09 11:37:00;;;;;;;10.20;5.90;;;22.60;81.30;;;;;;5050365;28;20081;-65
2021/07/09 11:39:28;;;;;;;7.82;6.00;;;22.60;81.60;;;;;;5050385;28;20033;-65
2021/07/09 11:42:15;;;;;;;7.50;5.43;;;22.50;82.00;;;;;;5050501;28;20021;-66
2021/07/09 11:44:45;;;;;;;7.10;6.15;;;22.40;81.70;;;;;;5049344;28;20036;-66
2021/07/09 11:47:25;;;;;;;10.75;6.32;;;22.20;83.60;;;;;;5051196;28;20029;-66
2021/07/09 11:50:01;;;;;;;10.88;7.00;;;22.30;83.60;;;;;;5050042;28;20078;-66
2021/07/09 11:52:37;;;;;;;7.07;6.38;;;22.70;82.80;;;;;;5050604;28;20043;-66
2021/07/09 11:55:06;;;;;;;7.43;6.20;;;23.20;82.10;;;;;;5049228;28;20037;-66
2021/07/09 11:57:35;;;;;;;10.00;6.13;;;23.60;80.70;;;;;;5050853;28;20470;-65
2021/07/09 12:00:05;;;;;;;9.55;7.07;;;23.60;80.40;;;;;;5049946;28;20494;-67
2021/07/09 12:02:31;;;;;;;8.65;7.72;;;23.40;77.50;;;;;;5050913;28;20029;-68
2021/07/09 12:04:59;;;;;;;11.13;7.95;;;22.50;84.50;;;;;;5050055;28;20886;-70
2021/07/09 12:07:35;;;;;;;10.70;8.23;;;21.50;92.30;;;;;;5051123;28;20021;-69
2021/07/09 12:10:12;;;;;;;11.68;7.78;;;20.60;89.70;;;;;;5049463;28;20281;-66
2021/07/09 12:13:04;;;;;;;10.65;8.05;;;20.10;95.00;;;;;;5050412;28;20036;-64
2021/07/09 12:15:39;;;;;;;11.95;8.82;;;20.10;97.10;;;;;;5050368;28;20040;-64
2021/07/09 12:18:07;;;;;;;14.25;9.00;;;20.50;94.00;;;;;;5050348;28;20093;-65
2021/07/09 12:20:37;;;;;;;12.70;9.27;;;20.50;95.90;;;;;;5050669;28;20443;-70
2021/07/09 12:23:04;;;;;;;12.52;8.77;;;20.50;95.50;;;;;;5049620;28;20040;-71
2021/07/09 12:25:32;;;;;;;13.70;11.07;;;20.50;95.80;;;;;;5049947;28;20489;-70
2021/07/09 12:28:07;;;;;;;11.48;10.38;;;20.70;93.90;;;;;;5049275;28;20564;-70
2021/07/09 12:30:38;;;;;;;14.43;9.90;;;20.80;94.80;;;;;;5050595;28;20053;-71
2021/07/09 12:33:15;;;;;;;14.90;10.15;;;20.90;94.20;;;;;;5049706;28;20036;-71
2021/07/09 12:35:42;;;;;;;11.38;9.55;;;21.00;94.00;;;;;;5050396;28;20571;-72
2021/07/09 12:38:12;;;;;;;10.05;9.05;;;21.10;93.90;;;;;;5050484;28;20028;-68
2021/07/09 12:40:39;;;;;;;8.63;7.13;;;21.10;94.90;;;;;;5050298;28;20559;-71
2021/07/09 12:43:09;;;;;;;7.78;6.40;;;21.20;94.10;;;;;;5050121;28;20033;-70
2021/07/09 12:45:34;;;;;;;8.73;7.83;;;21.50;95.70;;;;;;5050023;28;20382;-70
2021/07/09 12:48:00;;;;;;;11.23;6.80;;;22.30;92.20;;;;;;5048742;28;20282;-71
2021/07/09 12:50:26;;;;;;;7.40;6.60;;;23.00;90.30;;;;;;5050401;28;20072;-70